createdAt,value
2023-04-30T00:00:22.767Z,6.94
2023-04-30T00:02:49.625Z,6.95
2023-04-30T00:05:16.477Z,7.22
2023-04-30T00:07:45.931Z,6.57
2023-04-30T00:10:15.584Z,6.22
2023-04-30T00:12:42.737Z,6.11
2023-04-30T00:15:10.761Z,6.42
2023-04-30T00:17:40.534Z,6.85
2023-04-30T00:20:13.069Z,6.94
2023-04-30T00:22:40.931Z,7.15
2023-04-30T00:25:10.474Z,6.74
2023-04-30T00:27:39.393Z,6.97
2023-04-30T00:30:10.874Z,7.24
2023-04-30T00:32:38.919Z,7.21
2023-04-30T00:35:07.473Z,6.91
2023-04-30T00:37:34.808Z,6.82
2023-04-30T00:40:01.570Z,6.90
2023-04-30T00:42:28.389Z,7.25
2023-04-30T00:44:55.178Z,7.13
2023-04-30T00:47:22.262Z,7.25
2023-04-30T00:49:49.379Z,7.13
2023-04-30T00:52:16.413Z,7.51
2023-04-30T00:54:43.164Z,7.95
2023-04-30T00:57:10.200Z,7.53
2023-04-30T00:59:36.948Z,7.86
2023-04-30T01:02:04.068Z,7.43
2023-04-30T01:04:30.900Z,7.98
2023-04-30T01:06:57.932Z,8.09
2023-04-30T01:09:25.877Z,7.76
2023-04-30T01:12:11.040Z,7.88
2023-04-30T01:15:04.462Z,7.89
2023-04-30T01:17:53.081Z,8.06
2023-04-30T01:20:19.904Z,8.05
2023-04-30T01:23:09.808Z,8.05
2023-04-30T01:25:39.591Z,8.19
2023-04-30T01:28:10.282Z,7.98
2023-04-30T01:30:37.053Z,7.89
2023-04-30T01:33:04.540Z,8.07
2023-04-30T01:35:55.095Z,8.51
2023-04-30T01:38:55.002Z,8.55
2023-04-30T01:41:45.000Z,8.12
2023-04-30T01:44:46.655Z,8.48
2023-04-30T01:47:35.746Z,8.69
2023-04-30T01:50:25.889Z,8.75
2023-04-30T01:52:53.894Z,8.21
2023-04-30T01:55:51.639Z,8.18
2023-04-30T01:58:18.765Z,8.49
2023-04-30T02:00:45.939Z,8.56
2023-04-30T02:03:22.880Z,8.54
2023-04-30T02:05:50.468Z,8.83
2023-04-30T02:08:17.300Z,8.90
2023-04-30T02:10:44.445Z,8.66
2023-04-30T02:13:12.236Z,8.59
2023-04-30T02:15:39.041Z,8.70
2023-04-30T02:18:05.858Z,8.57
2023-04-30T02:20:32.565Z,8.92
2023-04-30T02:22:59.646Z,8.75
2023-04-30T02:25:26.953Z,8.78
2023-04-30T02:27:54.833Z,8.70
2023-04-30T02:30:21.633Z,9.00
2023-04-30T02:32:48.438Z,9.00
2023-04-30T02:35:15.350Z,8.69
2023-04-30T02:37:43.339Z,8.85
2023-04-30T02:40:11.924Z,8.98
2023-04-30T02:42:39.368Z,8.71
2023-04-30T02:45:06.665Z,8.99
2023-04-30T02:47:33.988Z,9.15
2023-04-30T02:50:02.067Z,9.05
2023-04-30T02:52:29.091Z,9.43
2023-04-30T02:54:56.210Z,9.31
2023-04-30T02:57:24.140Z,9.22
2023-04-30T02:59:51.971Z,9.45
2023-04-30T03:02:19.273Z,9.23
2023-04-30T03:04:45.978Z,8.70
2023-04-30T03:07:12.735Z,8.58
2023-04-30T03:09:40.138Z,8.91
2023-04-30T03:12:08.037Z,9.43
2023-04-30T03:14:35.143Z,9.43
2023-04-30T03:17:03.181Z,9.32
2023-04-30T03:19:30.254Z,9.00
2023-04-30T03:21:56.966Z,8.75
2023-04-30T03:24:23.993Z,8.42
2023-04-30T03:26:53.669Z,8.60
2023-04-30T03:29:20.438Z,8.64
2023-04-30T03:31:47.527Z,9.00
2023-04-30T03:34:14.611Z,9.11
2023-04-30T03:36:41.685Z,8.83
2023-04-30T03:39:08.809Z,8.56
2023-04-30T03:41:38.449Z,7.70
2023-04-30T03:44:05.931Z,7.70
2023-04-30T03:46:33.747Z,7.44
2023-04-30T03:49:01.573Z,7.69
2023-04-30T03:51:29.597Z,8.12
2023-04-30T03:53:56.348Z,8.45
2023-04-30T03:56:23.475Z,8.27
2023-04-30T03:58:50.538Z,9.26
2023-04-30T04:01:20.098Z,9.40
2023-04-30T04:03:46.970Z,9.59
2023-04-30T04:06:19.784Z,9.56
2023-04-30T04:08:46.545Z,10.02
2023-04-30T04:11:13.639Z,9.93
2023-04-30T04:13:40.531Z,10.52
2023-04-30T04:16:08.548Z,10.55
2023-04-30T04:18:36.499Z,9.98
2023-04-30T04:21:03.294Z,10.31
2023-04-30T04:23:33.183Z,9.98
2023-04-30T04:26:00.859Z,9.32
2023-04-30T04:28:30.361Z,9.36
2023-04-30T04:30:57.425Z,9.22
2023-04-30T04:33:24.242Z,9.05
2023-04-30T04:35:51.380Z,9.55
2023-04-30T04:38:18.612Z,9.33
2023-04-30T04:40:54.902Z,9.39
2023-04-30T04:43:23.106Z,9.29
2023-04-30T04:45:50.016Z,8.69
2023-04-30T04:48:16.966Z,8.18
2023-04-30T04:50:46.613Z,8.04
2023-04-30T04:53:14.165Z,8.08
2023-04-30T04:55:48.270Z,8.40
2023-04-30T04:58:15.556Z,8.36
2023-04-30T05:00:45.297Z,8.41
2023-04-30T05:03:12.342Z,8.64
2023-04-30T05:05:39.143Z,8.30
2023-04-30T05:08:24.190Z,8.14
2023-04-30T05:10:50.967Z,7.51
2023-04-30T05:13:18.692Z,8.44
2023-04-30T05:15:45.825Z,8.05
2023-04-30T05:18:13.927Z,9.09
2023-04-30T05:20:43.081Z,8.57
2023-04-30T05:23:11.426Z,9.06
2023-04-30T05:25:38.207Z,8.68
2023-04-30T05:28:06.055Z,8.98
2023-04-30T05:30:33.362Z,9.39
2023-04-30T05:33:01.440Z,9.19
2023-04-30T05:35:28.554Z,9.31
2023-04-30T05:37:55.521Z,9.36
2023-04-30T05:40:22.214Z,8.87
2023-04-30T05:42:49.026Z,8.44
2023-04-30T05:45:17.424Z,8.62
2023-04-30T05:47:45.806Z,8.55
2023-04-30T05:50:14.964Z,8.78
2023-04-30T05:52:42.879Z,8.50
2023-04-30T05:55:14.772Z,8.60
2023-04-30T05:57:44.295Z,8.12
2023-04-30T06:00:11.809Z,8.01
2023-04-30T06:02:38.652Z,8.21
2023-04-30T06:05:07.801Z,8.19
2023-04-30T06:07:35.760Z,7.60
2023-04-30T06:10:02.982Z,7.09
2023-04-30T06:12:29.700Z,7.52
2023-04-30T06:14:58.807Z,7.54
2023-04-30T06:17:26.629Z,7.88
2023-04-30T06:19:57.314Z,8.07
2023-04-30T06:22:24.809Z,7.91
2023-04-30T06:24:51.809Z,8.31
2023-04-30T06:27:18.758Z,8.07
2023-04-30T06:29:45.589Z,7.97
2023-04-30T06:32:14.459Z,8.54
2023-04-30T06:35:01.334Z,8.01
2023-04-30T06:37:29.830Z,8.11
2023-04-30T06:39:57.632Z,8.65
2023-04-30T06:42:24.624Z,8.96
2023-04-30T06:44:51.375Z,8.48
2023-04-30T06:47:18.150Z,8.50
2023-04-30T06:49:44.888Z,8.84
2023-04-30T06:52:11.680Z,8.48
2023-04-30T06:54:38.483Z,8.59
2023-04-30T06:57:05.602Z,8.38
2023-04-30T06:59:32.418Z,8.63
2023-04-30T07:01:59.280Z,8.58
2023-04-30T07:04:26.308Z,9.16
2023-04-30T07:06:53.138Z,9.12
2023-04-30T07:09:39.097Z,8.87
2023-04-30T07:12:05.793Z,8.42
2023-04-30T07:14:32.850Z,8.26
2023-04-30T07:16:59.687Z,8.13
2023-04-30T07:19:30.314Z,8.79
2023-04-30T07:21:57.566Z,7.88
2023-04-30T07:24:25.092Z,8.23
2023-04-30T07:26:51.869Z,8.42
2023-04-30T07:29:18.720Z,8.67
2023-04-30T07:31:46.986Z,8.67
2023-04-30T07:34:13.846Z,9.22
2023-04-30T07:36:40.646Z,8.48
2023-04-30T07:39:07.407Z,7.37
2023-04-30T07:41:34.245Z,7.87
2023-04-30T07:44:02.337Z,7.41
2023-04-30T07:46:30.101Z,7.91
2023-04-30T07:48:57.042Z,7.56
2023-04-30T07:51:24.767Z,7.68
2023-04-30T07:53:52.653Z,7.71
2023-04-30T07:56:20.147Z,7.65
2023-04-30T07:58:49.824Z,7.19
2023-04-30T08:01:17.060Z,7.48
2023-04-30T08:03:49.793Z,7.48
2023-04-30T08:06:18.333Z,7.16
2023-04-30T08:08:45.147Z,6.44
2023-04-30T08:11:12.024Z,6.80
2023-04-30T08:13:39.047Z,6.63
2023-04-30T08:16:13.610Z,6.49
2023-04-30T08:18:40.533Z,7.47
2023-04-30T08:21:08.772Z,7.45
2023-04-30T08:23:36.954Z,7.54
2023-04-30T08:26:03.837Z,7.63
2023-04-30T08:28:31.384Z,7.75
2023-04-30T08:30:58.672Z,7.91
2023-04-30T08:33:25.880Z,8.25
2023-04-30T08:35:53.719Z,8.86
2023-04-30T08:41:57.317Z,7.96
2023-04-30T08:44:25.468Z,7.87
2023-04-30T08:46:54.267Z,8.43
2023-04-30T08:49:24.933Z,8.28
2023-04-30T08:51:53.288Z,8.11
2023-04-30T08:58:19.953Z,7.49
2023-04-30T09:00:46.868Z,7.34
2023-04-30T09:03:15.428Z,7.20
2023-04-30T09:05:43.808Z,7.76
2023-04-30T09:08:11.726Z,7.63
2023-04-30T09:10:39.152Z,7.48
2023-04-30T09:13:10.647Z,7.60
2023-04-30T09:15:46.229Z,8.31
2023-04-30T09:18:23.143Z,7.47
2023-04-30T09:21:03.623Z,6.99
2023-04-30T09:23:33.369Z,7.03
2023-04-30T09:26:00.205Z,6.99
2023-04-30T09:28:33.343Z,7.50
2023-04-30T09:31:20.569Z,7.85
2023-04-30T09:33:49.503Z,7.55
2023-04-30T09:36:16.688Z,8.09
2023-04-30T09:42:24.830Z,9.03
2023-04-30T09:44:52.241Z,9.14
2023-04-30T09:47:22.444Z,9.03
2023-04-30T09:49:50.846Z,8.68
2023-04-30T09:52:18.107Z,8.50
2023-04-30T09:54:45.299Z,8.69
2023-04-30T09:57:14.586Z,8.75
2023-04-30T09:59:45.757Z,8.09
2023-04-30T10:02:14.155Z,8.31
2023-04-30T10:04:44.783Z,8.16
2023-04-30T10:07:22.170Z,8.36
2023-04-30T10:10:11.739Z,8.02
2023-04-30T10:12:50.651Z,8.01
2023-04-30T10:15:43.459Z,8.49
2023-04-30T10:18:46.351Z,8.83
2023-04-30T10:21:14.275Z,8.95
2023-04-30T10:23:42.278Z,8.74
2023-04-30T10:26:15.730Z,8.56
2023-04-30T10:28:43.152Z,8.37
2023-04-30T10:31:12.963Z,7.74
2023-04-30T10:34:04.714Z,7.69
2023-04-30T10:36:43.278Z,8.37
2023-04-30T10:39:10.537Z,7.77
2023-04-30T10:41:37.311Z,7.62
2023-04-30T10:47:44.945Z,7.38
2023-04-30T10:50:12.628Z,7.89
2023-04-30T10:52:39.351Z,7.87
2023-04-30T10:55:09.497Z,7.98
2023-04-30T10:57:43.562Z,7.58
2023-04-30T11:00:13.322Z,7.20
2023-04-30T11:03:03.899Z,7.77
2023-04-30T11:05:38.409Z,7.18
2023-04-30T11:08:43.409Z,7.66
2023-04-30T11:11:12.583Z,8.00
2023-04-30T11:13:45.177Z,8.36
2023-04-30T11:16:12.213Z,8.16
2023-04-30T11:18:43.987Z,8.74
2023-04-30T11:21:12.520Z,8.23
2023-04-30T11:23:43.965Z,8.38
2023-04-30T11:26:14.283Z,9.35
2023-04-30T11:28:51.014Z,8.44
2023-04-30T11:31:19.282Z,8.12
2023-04-30T11:33:47.276Z,8.13
2023-04-30T11:36:14.310Z,8.73
2023-04-30T11:38:41.259Z,8.09
2023-04-30T11:41:10.153Z,7.85
2023-04-30T11:43:39.789Z,10.69
2023-04-30T11:46:11.208Z,7.33
2023-04-30T11:48:43.933Z,6.63
2023-04-30T11:51:43.129Z,7.37
2023-04-30T11:54:10.118Z,8.69
2023-04-30T11:56:41.526Z,6.52
2023-04-30T11:59:14.569Z,7.76
2023-04-30T12:01:41.847Z,7.67
2023-04-30T12:04:08.950Z,7.91
2023-04-30T12:06:37.128Z,8.43
2023-04-30T12:09:05.093Z,7.98
2023-04-30T12:11:32.275Z,8.45
2023-04-30T12:14:03.670Z,8.10
2023-04-30T12:16:57.556Z,8.23
2023-04-30T12:19:24.982Z,8.09
2023-04-30T12:21:52.162Z,8.55
2023-04-30T12:24:34.696Z,8.41
2023-04-30T12:27:02.149Z,8.08
2023-04-30T12:29:29.235Z,7.96
2023-04-30T12:31:55.975Z,7.80
2023-04-30T12:34:26.581Z,7.88
2023-04-30T12:36:53.291Z,8.09
2023-04-30T12:39:22.857Z,8.23
2023-04-30T12:41:50.326Z,8.24
2023-04-30T12:44:17.721Z,8.36
2023-04-30T12:46:44.957Z,8.21
2023-04-30T12:49:12.181Z,8.40
2023-04-30T12:51:42.487Z,8.53
2023-04-30T12:54:25.023Z,8.36
2023-04-30T12:57:01.734Z,8.73
2023-04-30T12:59:29.053Z,8.67
2023-04-30T13:01:55.972Z,7.99
2023-04-30T13:04:22.764Z,8.67
2023-04-30T13:06:52.484Z,8.01
2023-04-30T13:09:19.745Z,8.56
2023-04-30T13:11:46.421Z,8.66
2023-04-30T13:14:13.164Z,8.52
2023-04-30T13:16:40.377Z,8.14
2023-04-30T13:19:08.032Z,8.48
2023-04-30T13:21:35.094Z,8.46
2023-04-30T13:24:02.670Z,8.12
2023-04-30T13:26:32.525Z,8.41
2023-04-30T13:29:07.377Z,8.70
2023-04-30T13:31:34.803Z,8.39
2023-04-30T13:34:16.825Z,8.31
2023-04-30T13:36:43.528Z,9.00
2023-04-30T13:39:11.359Z,8.57
2023-04-30T13:41:38.568Z,8.82
2023-04-30T13:44:05.446Z,8.40
2023-04-30T13:46:34.233Z,8.03
2023-04-30T13:49:04.644Z,7.92
2023-04-30T13:51:31.819Z,7.87
2023-04-30T13:54:01.313Z,8.18
2023-04-30T13:56:31.031Z,7.96
2023-04-30T13:58:57.806Z,7.75
2023-04-30T14:01:25.885Z,8.19
2023-04-30T14:03:53.883Z,8.56
2023-04-30T14:06:20.722Z,8.01
2023-04-30T14:08:47.636Z,8.56
2023-04-30T14:11:15.547Z,8.56
2023-04-30T14:13:42.230Z,8.07
2023-04-30T14:16:09.410Z,8.00
2023-04-30T14:18:41.224Z,8.10
2023-04-30T14:21:09.327Z,8.27
2023-04-30T14:23:36.436Z,8.23
2023-04-30T14:26:04.723Z,8.46
2023-04-30T14:28:31.935Z,8.05
2023-04-30T14:30:59.157Z,8.73
2023-04-30T14:33:25.984Z,8.35
2023-04-30T14:35:53.402Z,8.13
2023-04-30T14:38:21.507Z,8.17
2023-04-30T14:40:51.058Z,8.70
2023-04-30T14:43:17.874Z,8.69
2023-04-30T14:45:47.582Z,8.42
2023-04-30T14:48:14.856Z,8.28
2023-04-30T14:50:45.502Z,8.20
2023-04-30T14:53:12.945Z,8.38
2023-04-30T14:55:41.212Z,7.97
2023-04-30T14:58:09.306Z,8.24
2023-04-30T15:00:44.161Z,8.10
2023-04-30T15:03:25.070Z,8.14
2023-04-30T15:05:52.378Z,8.08
2023-04-30T15:08:19.328Z,8.58
2023-04-30T15:10:47.416Z,8.50
2023-04-30T15:13:14.256Z,8.14
2023-04-30T15:15:41.524Z,8.32
2023-04-30T15:18:09.634Z,7.47
2023-04-30T15:20:36.576Z,7.84
2023-04-30T15:23:06.315Z,8.15
2023-04-30T15:25:33.554Z,7.41
2023-04-30T15:28:03.120Z,7.08
2023-04-30T15:30:30.217Z,7.51
2023-04-30T15:33:17.274Z,7.47
2023-04-30T15:35:44.281Z,7.05
2023-04-30T15:38:14.142Z,6.98
2023-04-30T15:40:43.170Z,7.08
2023-04-30T15:43:11.575Z,7.62
2023-04-30T15:45:39.764Z,7.49
2023-04-30T15:48:07.131Z,7.39
2023-04-30T15:50:35.126Z,7.41
2023-04-30T15:53:02.216Z,7.45
2023-04-30T15:55:29.697Z,7.77
2023-04-30T15:57:56.755Z,7.64
2023-04-30T16:00:23.461Z,7.33
2023-04-30T16:02:51.542Z,7.49
2023-04-30T16:05:20.050Z,7.30
2023-04-30T16:07:47.239Z,7.52
2023-04-30T16:10:15.297Z,7.17
2023-04-30T16:12:43.274Z,7.38
2023-04-30T16:15:13.226Z,7.58
2023-04-30T16:17:40.383Z,7.68
2023-04-30T16:20:07.647Z,8.00
2023-04-30T16:22:37.322Z,8.30
2023-04-30T16:25:04.854Z,7.94
2023-04-30T16:27:34.108Z,7.83
2023-04-30T16:32:57.823Z,8.09
2023-04-30T16:35:24.870Z,7.73
2023-04-30T16:37:53.922Z,8.20
2023-04-30T16:40:20.717Z,8.24
2023-04-30T16:42:48.745Z,8.30
2023-04-30T16:45:15.511Z,7.93
2023-04-30T16:47:43.700Z,7.60
2023-04-30T16:50:11.722Z,7.65
2023-04-30T16:53:04.531Z,7.52
2023-04-30T16:55:32.490Z,8.14
2023-04-30T16:58:00.199Z,8.25
2023-04-30T17:00:33.243Z,8.44
2023-04-30T17:03:00.516Z,8.67
2023-04-30T17:05:30.558Z,8.89
2023-04-30T17:08:16.282Z,8.57
2023-04-30T17:10:43.555Z,9.03
2023-04-30T17:13:13.123Z,8.96
2023-04-30T17:15:40.958Z,9.22
2023-04-30T17:18:08.031Z,9.29
2023-04-30T17:20:36.362Z,9.53
2023-04-30T17:23:09.880Z,9.91
2023-04-30T17:25:37.283Z,9.71
2023-04-30T17:28:06.916Z,9.84
2023-04-30T17:30:44.386Z,9.65
2023-04-30T17:33:11.191Z,9.71
2023-04-30T17:35:38.615Z,9.33
2023-04-30T17:38:15.777Z,9.45
2023-04-30T17:40:42.490Z,9.51
2023-04-30T17:43:09.379Z,9.48
2023-04-30T17:45:37.489Z,8.65
2023-04-30T17:48:04.783Z,9.28
2023-04-30T17:50:31.548Z,9.65
2023-04-30T17:52:58.593Z,9.24
2023-04-30T17:55:25.621Z,9.09
2023-04-30T17:57:55.292Z,10.24
2023-04-30T18:00:22.237Z,9.79
2023-04-30T18:02:50.401Z,9.57
2023-04-30T18:05:18.756Z,9.47
2023-04-30T18:07:52.300Z,9.38
2023-04-30T18:10:20.242Z,9.10
2023-04-30T18:12:49.475Z,8.81
2023-04-30T18:15:16.542Z,8.55
2023-04-30T18:17:43.590Z,8.61
2023-04-30T18:20:13.261Z,8.35
2023-04-30T18:22:43.705Z,8.85
2023-04-30T18:25:15.943Z,8.54
2023-04-30T18:27:45.475Z,8.18
2023-04-30T18:30:12.531Z,8.22
2023-04-30T18:32:39.646Z,9.49
2023-04-30T18:35:07.181Z,10.11
2023-04-30T18:37:34.337Z,10.83
2023-04-30T18:40:04.037Z,12.60
2023-04-30T18:42:31.176Z,14.34
2023-04-30T18:44:58.728Z,14.37
2023-04-30T18:47:25.846Z,14.82
2023-04-30T18:49:53.637Z,12.76
2023-04-30T18:52:22.617Z,11.11
2023-04-30T18:54:50.719Z,10.14
2023-04-30T18:57:21.318Z,9.45
2023-04-30T18:59:48.884Z,9.89
2023-04-30T19:02:16.326Z,10.05
2023-04-30T19:04:46.835Z,9.32
2023-04-30T19:07:13.717Z,9.28
2023-04-30T19:09:40.590Z,9.26
2023-04-30T19:12:08.834Z,8.92
2023-04-30T19:14:37.169Z,9.10
2023-04-30T19:17:04.642Z,9.01
2023-04-30T19:19:34.768Z,9.33
2023-04-30T19:22:02.683Z,9.57
2023-04-30T19:24:34.909Z,9.30
2023-04-30T19:27:09.934Z,9.35
2023-04-30T19:29:36.790Z,9.55
2023-04-30T19:32:12.252Z,9.33
2023-04-30T19:34:40.663Z,9.38
2023-04-30T19:37:09.104Z,9.20
2023-04-30T19:39:36.329Z,9.72
2023-04-30T19:42:03.588Z,10.05
2023-04-30T19:44:31.785Z,10.82
2023-04-30T19:47:08.088Z,10.92
2023-04-30T19:49:38.372Z,10.57
2023-04-30T19:52:06.543Z,9.94
2023-04-30T19:54:35.301Z,10.40
2023-04-30T19:57:02.376Z,10.42
2023-04-30T19:59:34.533Z,10.61
2023-04-30T20:02:01.781Z,10.34
2023-04-30T20:04:36.226Z,11.12
2023-04-30T20:07:04.732Z,11.85
2023-04-30T20:09:31.554Z,11.47
2023-04-30T20:11:59.628Z,12.62
2023-04-30T20:14:26.966Z,12.21
2023-04-30T20:16:56.526Z,12.06
2023-04-30T20:19:24.105Z,11.60
2023-04-30T20:21:51.258Z,11.39
2023-04-30T20:24:18.599Z,11.04
2023-04-30T20:26:47.831Z,10.53
2023-04-30T20:29:20.815Z,9.85
2023-04-30T20:31:50.458Z,10.40
2023-04-30T20:34:18.520Z,10.44
2023-04-30T20:36:47.173Z,10.07
2023-04-30T20:39:14.753Z,10.09
2023-04-30T20:41:42.697Z,10.50
2023-04-30T20:44:09.482Z,10.79
2023-04-30T20:46:36.324Z,10.48
2023-04-30T20:49:03.969Z,10.38
2023-04-30T20:51:32.469Z,10.53
2023-04-30T20:54:15.763Z,11.88
2023-04-30T20:56:43.197Z,10.66
2023-04-30T20:59:11.497Z,10.02
2023-04-30T21:01:39.928Z,10.65
2023-04-30T21:04:08.954Z,10.88
2023-04-30T21:06:37.078Z,10.54
2023-04-30T21:09:04.705Z,9.84
2023-04-30T21:11:38.708Z,9.67
2023-04-30T21:14:08.361Z,9.51
2023-04-30T21:16:35.664Z,9.44
2023-04-30T21:19:02.415Z,9.43
2023-04-30T21:21:30.192Z,8.79
2023-04-30T21:23:57.946Z,9.26
2023-04-30T21:26:25.725Z,9.46
2023-04-30T21:28:52.718Z,9.66
2023-04-30T21:31:20.290Z,9.44
2023-04-30T21:33:46.999Z,9.04
2023-04-30T21:36:13.831Z,9.13
2023-04-30T21:38:41.430Z,9.01
2023-04-30T21:41:15.395Z,8.87
2023-04-30T21:43:42.419Z,9.11
2023-04-30T21:46:14.080Z,9.27
2023-04-30T21:48:40.900Z,9.15
2023-04-30T21:51:11.536Z,9.60
2023-04-30T21:53:39.612Z,9.67
2023-04-30T21:56:08.068Z,9.09
2023-04-30T21:58:36.541Z,9.05
2023-04-30T22:01:05.197Z,9.31
2023-04-30T22:03:32.397Z,9.67
2023-04-30T22:06:00.828Z,9.89
2023-04-30T22:08:27.749Z,9.52
2023-04-30T22:10:59.336Z,9.48
2023-04-30T22:13:29.160Z,9.37
2023-04-30T22:15:56.859Z,9.42
2023-04-30T22:18:24.965Z,9.76
2023-04-30T22:20:52.368Z,10.08
2023-04-30T22:23:19.500Z,10.32
2023-04-30T22:25:46.962Z,10.17
2023-04-30T22:28:14.652Z,10.59
2023-04-30T22:30:42.722Z,10.56
2023-04-30T22:33:31.992Z,10.89
2023-04-30T22:35:59.131Z,10.87
2023-04-30T22:38:29.223Z,10.58
2023-04-30T22:40:56.697Z,10.53
2023-04-30T22:43:24.190Z,10.87
2023-04-30T22:45:51.294Z,10.51
2023-04-30T22:48:18.050Z,10.87
2023-04-30T22:50:44.947Z,10.72
2023-04-30T22:53:11.993Z,10.88
2023-04-30T22:55:40.530Z,11.11
2023-04-30T22:58:08.285Z,11.05
2023-04-30T23:00:36.160Z,10.47
2023-04-30T23:03:03.077Z,10.58
2023-04-30T23:05:30.131Z,10.77
2023-04-30T23:07:57.393Z,10.74
2023-04-30T23:10:24.816Z,10.91
2023-04-30T23:12:52.358Z,10.54
2023-04-30T23:15:19.224Z,10.49
2023-04-30T23:17:46.435Z,10.50
2023-04-30T23:20:16.333Z,10.27
2023-04-30T23:22:54.311Z,10.83
2023-04-30T23:25:22.018Z,11.24
2023-04-30T23:27:49.646Z,10.99
2023-04-30T23:30:19.574Z,11.49
2023-04-30T23:32:49.190Z,11.84
2023-04-30T23:35:18.779Z,12.23
2023-04-30T23:41:29.294Z,11.98
2023-04-30T23:43:56.621Z,12.39
2023-04-30T23:46:24.318Z,12.28
2023-04-30T23:48:51.971Z,12.62
2023-04-30T23:51:21.628Z,12.09
2023-04-30T23:53:49.541Z,11.77
2023-04-30T23:56:19.334Z,11.45
2023-04-30T23:58:46.445Z,11.91
